sensor_id;sensor_type;location;lat;lon;timestamp;P1;durP1;ratioP1;P2;durP2;ratioP2
18013;SDS011;9132;47.946;10.394;2023-07-16T00:00:38;5.35;;;4.85;;
18013;SDS011;9132;47.946;10.394;2023-07-16T00:03:04;6.57;;;4.72;;
18013;SDS011;9132;47.946;10.394;2023-07-16T00:05:32;6.68;;;4.75;;
18013;SDS011;9132;47.946;10.394;2023-07-16T00:07:58;5.38;;;4.50;;
18013;SDS011;9132;47.946;10.394;2023-07-16T00:10:25;7.97;;;4.28;;
18013;SDS011;9132;47.946;10.394;2023-07-16T00:12:51;7.07;;;4.57;;
18013;SDS011;9132;47.946;10.394;2023-07-16T00:15:17;4.60;;;4.20;;
18013;SDS011;9132;47.946;10.394;2023-07-16T00:17:44;5.75;;;4.47;;
18013;SDS011;9132;47.946;10.394;2023-07-16T00:20:10;5.10;;;4.00;;
18013;SDS011;9132;47.946;10.394;2023-07-16T00:22:38;5.32;;;4.15;;
18013;SDS011;9132;47.946;10.394;2023-07-16T00:25:05;7.30;;;4.35;;
18013;SDS011;9132;47.946;10.394;2023-07-16T00:27:31;4.50;;;4.10;;
18013;SDS011;9132;47.946;10.394;2023-07-16T00:29:58;5.13;;;4.18;;
18013;SDS011;9132;47.946;10.394;2023-07-16T00:32:24;4.68;;;4.18;;
18013;SDS011;9132;47.946;10.394;2023-07-16T00:34:50;5.75;;;4.25;;
18013;SDS011;9132;47.946;10.394;2023-07-16T00:37:16;5.97;;;3.78;;
18013;SDS011;9132;47.946;10.394;2023-07-16T00:39:44;5.63;;;3.78;;
18013;SDS011;9132;47.946;10.394;2023-07-16T00:42:10;6.70;;;4.45;;
18013;SDS011;9132;47.946;10.394;2023-07-16T00:44:37;5.05;;;4.45;;
18013;SDS011;9132;47.946;10.394;2023-07-16T00:47:03;6.35;;;4.18;;
18013;SDS011;9132;47.946;10.394;2023-07-16T00:49:29;5.78;;;4.20;;
18013;SDS011;9132;47.946;10.394;2023-07-16T00:51:57;5.30;;;4.10;;
18013;SDS011;9132;47.946;10.394;2023-07-16T00:54:24;6.82;;;4.68;;
18013;SDS011;9132;47.946;10.394;2023-07-16T00:56:51;8.75;;;5.10;;
18013;SDS011;9132;47.946;10.394;2023-07-16T00:59:18;6.53;;;4.50;;
18013;SDS011;9132;47.946;10.394;2023-07-16T01:01:44;8.57;;;4.53;;
18013;SDS011;9132;47.946;10.394;2023-07-16T01:04:10;5.88;;;4.20;;
18013;SDS011;9132;47.946;10.394;2023-07-16T01:06:37;9.13;;;5.10;;
18013;SDS011;9132;47.946;10.394;2023-07-16T01:09:07;5.82;;;4.80;;
18013;SDS011;9132;47.946;10.394;2023-07-16T01:11:33;7.88;;;4.75;;
18013;SDS011;9132;47.946;10.394;2023-07-16T01:14:02;5.82;;;4.75;;
18013;SDS011;9132;47.946;10.394;2023-07-16T01:16:29;6.85;;;4.45;;
18013;SDS011;9132;47.946;10.394;2023-07-16T01:18:55;7.15;;;5.10;;
18013;SDS011;9132;47.946;10.394;2023-07-16T01:21:22;6.75;;;4.90;;
18013;SDS011;9132;47.946;10.394;2023-07-16T01:24:07;4.82;;;4.43;;
18013;SDS011;9132;47.946;10.394;2023-07-16T01:26:39;5.55;;;4.85;;
18013;SDS011;9132;47.946;10.394;2023-07-16T01:29:16;4.78;;;4.32;;
18013;SDS011;9132;47.946;10.394;2023-07-16T01:31:45;6.72;;;3.83;;
18013;SDS011;9132;47.946;10.394;2023-07-16T01:34:12;4.80;;;3.80;;
18013;SDS011;9132;47.946;10.394;2023-07-16T01:36:39;5.07;;;3.75;;
18013;SDS011;9132;47.946;10.394;2023-07-16T01:39:06;6.57;;;3.75;;
18013;SDS011;9132;47.946;10.394;2023-07-16T01:41:32;4.55;;;3.63;;
18013;SDS011;9132;47.946;10.394;2023-07-16T01:43:58;4.18;;;3.60;;
18013;SDS011;9132;47.946;10.394;2023-07-16T01:46:26;3.97;;;3.50;;
18013;SDS011;9132;47.946;10.394;2023-07-16T01:48:52;3.67;;;3.38;;
18013;SDS011;9132;47.946;10.394;2023-07-16T01:51:19;4.60;;;3.28;;
18013;SDS011;9132;47.946;10.394;2023-07-16T01:53:45;2.88;;;2.65;;
18013;SDS011;9132;47.946;10.394;2023-07-16T01:56:11;2.97;;;2.67;;
18013;SDS011;9132;47.946;10.394;2023-07-16T01:58:38;2.95;;;2.72;;
18013;SDS011;9132;47.946;10.394;2023-07-16T02:01:04;3.35;;;3.00;;
18013;SDS011;9132;47.946;10.394;2023-07-16T02:03:32;3.97;;;3.38;;
18013;SDS011;9132;47.946;10.394;2023-07-16T02:05:58;3.92;;;3.50;;
18013;SDS011;9132;47.946;10.394;2023-07-16T02:08:24;4.28;;;3.60;;
18013;SDS011;9132;47.946;10.394;2023-07-16T02:10:50;5.55;;;3.60;;
18013;SDS011;9132;47.946;10.394;2023-07-16T02:13:17;4.60;;;3.50;;
18013;SDS011;9132;47.946;10.394;2023-07-16T02:15:43;4.40;;;4.00;;
18013;SDS011;9132;47.946;10.394;2023-07-16T02:18:09;4.05;;;3.65;;
18013;SDS011;9132;47.946;10.394;2023-07-16T02:20:37;3.88;;;3.47;;
18013;SDS011;9132;47.946;10.394;2023-07-16T02:23:03;4.07;;;3.67;;
18013;SDS011;9132;47.946;10.394;2023-07-16T02:25:29;3.65;;;3.30;;
18013;SDS011;9132;47.946;10.394;2023-07-16T02:27:56;5.53;;;3.30;;
18013;SDS011;9132;47.946;10.394;2023-07-16T02:30:22;3.30;;;3.00;;
18013;SDS011;9132;47.946;10.394;2023-07-16T02:32:48;3.85;;;3.47;;
18013;SDS011;9132;47.946;10.394;2023-07-16T02:35:15;3.40;;;2.97;;
18013;SDS011;9132;47.946;10.394;2023-07-16T02:37:42;4.38;;;3.30;;
18013;SDS011;9132;47.946;10.394;2023-07-16T02:40:09;4.70;;;2.67;;
18013;SDS011;9132;47.946;10.394;2023-07-16T02:42:35;2.67;;;2.47;;
18013;SDS011;9132;47.946;10.394;2023-07-16T02:45:01;2.28;;;2.08;;
18013;SDS011;9132;47.946;10.394;2023-07-16T02:47:28;2.80;;;2.60;;
18013;SDS011;9132;47.946;10.394;2023-07-16T02:49:54;2.50;;;2.30;;
18013;SDS011;9132;47.946;10.394;2023-07-16T02:52:20;5.78;;;2.65;;
18013;SDS011;9132;47.946;10.394;2023-07-16T02:54:48;3.33;;;2.47;;
18013;SDS011;9132;47.946;10.394;2023-07-16T02:57:14;2.85;;;2.20;;
18013;SDS011;9132;47.946;10.394;2023-07-16T02:59:41;2.13;;;1.90;;
18013;SDS011;9132;47.946;10.394;2023-07-16T03:02:07;4.13;;;1.90;;
18013;SDS011;9132;47.946;10.394;2023-07-16T03:04:33;3.40;;;2.15;;
18013;SDS011;9132;47.946;10.394;2023-07-16T03:07:00;2.35;;;1.90;;
18013;SDS011;9132;47.946;10.394;2023-07-16T03:09:26;2.45;;;1.80;;
18013;SDS011;9132;47.946;10.394;2023-07-16T03:11:53;2.10;;;1.70;;
18013;SDS011;9132;47.946;10.394;2023-07-16T03:14:20;2.25;;;1.60;;
18013;SDS011;9132;47.946;10.394;2023-07-16T03:16:46;2.15;;;1.65;;
18013;SDS011;9132;47.946;10.394;2023-07-16T03:19:12;2.10;;;1.70;;
18013;SDS011;9132;47.946;10.394;2023-07-16T03:21:39;1.67;;;1.52;;
18013;SDS011;9132;47.946;10.394;2023-07-16T03:24:05;1.70;;;1.60;;
18013;SDS011;9132;47.946;10.394;2023-07-16T03:26:31;2.55;;;1.80;;
18013;SDS011;9132;47.946;10.394;2023-07-16T03:28:59;2.25;;;1.63;;
18013;SDS011;9132;47.946;10.394;2023-07-16T03:31:25;4.43;;;2.03;;
18013;SDS011;9132;47.946;10.394;2023-07-16T03:33:52;2.67;;;1.90;;
18013;SDS011;9132;47.946;10.394;2023-07-16T03:36:18;4.32;;;2.00;;
18013;SDS011;9132;47.946;10.394;2023-07-16T03:38:44;2.40;;;1.92;;
18013;SDS011;9132;47.946;10.394;2023-07-16T03:41:10;2.10;;;1.90;;
18013;SDS011;9132;47.946;10.394;2023-07-16T03:43:37;1.80;;;1.70;;
18013;SDS011;9132;47.946;10.394;2023-07-16T03:46:04;1.92;;;1.80;;
18013;SDS011;9132;47.946;10.394;2023-07-16T03:48:33;2.80;;;2.08;;
18013;SDS011;9132;47.946;10.394;2023-07-16T03:50:59;2.10;;;1.90;;
18013;SDS011;9132;47.946;10.394;2023-07-16T03:53:25;2.15;;;1.63;;
18013;SDS011;9132;47.946;10.394;2023-07-16T03:55:52;2.47;;;2.08;;
18013;SDS011;9132;47.946;10.394;2023-07-16T03:58:18;1.70;;;1.60;;
18013;SDS011;9132;47.946;10.394;2023-07-16T04:00:44;2.47;;;2.17;;
18013;SDS011;9132;47.946;10.394;2023-07-16T04:03:12;3.05;;;2.00;;
18013;SDS011;9132;47.946;10.394;2023-07-16T04:05:38;2.78;;;2.30;;
18013;SDS011;9132;47.946;10.394;2023-07-16T04:08:05;3.33;;;2.30;;
18013;SDS011;9132;47.946;10.394;2023-07-16T04:10:31;2.53;;;2.10;;
18013;SDS011;9132;47.946;10.394;2023-07-16T04:12:57;2.35;;;2.05;;
18013;SDS011;9132;47.946;10.394;2023-07-16T04:15:24;2.88;;;2.10;;
18013;SDS011;9132;47.946;10.394;2023-07-16T04:17:50;1.90;;;1.70;;
18013;SDS011;9132;47.946;10.394;2023-07-16T04:20:18;1.90;;;1.60;;
18013;SDS011;9132;47.946;10.394;2023-07-16T04:22:44;1.50;;;1.40;;
18013;SDS011;9132;47.946;10.394;2023-07-16T04:25:10;2.15;;;1.50;;
18013;SDS011;9132;47.946;10.394;2023-07-16T04:27:37;1.60;;;1.48;;
18013;SDS011;9132;47.946;10.394;2023-07-16T04:30:05;1.58;;;1.40;;
18013;SDS011;9132;47.946;10.394;2023-07-16T04:32:32;1.98;;;1.38;;
18013;SDS011;9132;47.946;10.394;2023-07-16T04:34:58;2.08;;;1.40;;
18013;SDS011;9132;47.946;10.394;2023-07-16T04:37:26;1.67;;;1.40;;
18013;SDS011;9132;47.946;10.394;2023-07-16T04:39:53;1.15;;;1.05;;
18013;SDS011;9132;47.946;10.394;2023-07-16T04:42:19;1.30;;;1.20;;
18013;SDS011;9132;47.946;10.394;2023-07-16T04:44:46;1.40;;;1.20;;
18013;SDS011;9132;47.946;10.394;2023-07-16T04:47:12;1.35;;;1.25;;
18013;SDS011;9132;47.946;10.394;2023-07-16T04:49:38;3.05;;;1.40;;
18013;SDS011;9132;47.946;10.394;2023-07-16T04:52:05;2.15;;;1.30;;
18013;SDS011;9132;47.946;10.394;2023-07-16T04:54:35;1.33;;;1.23;;
18013;SDS011;9132;47.946;10.394;2023-07-16T04:57:02;1.30;;;1.20;;
18013;SDS011;9132;47.946;10.394;2023-07-16T04:59:29;2.35;;;1.25;;
18013;SDS011;9132;47.946;10.394;2023-07-16T05:01:55;1.05;;;0.90;;
18013;SDS011;9132;47.946;10.394;2023-07-16T05:04:21;1.10;;;1.00;;
18013;SDS011;9132;47.946;10.394;2023-07-16T05:06:48;1.92;;;1.20;;
18013;SDS011;9132;47.946;10.394;2023-07-16T05:09:14;2.08;;;1.10;;
18013;SDS011;9132;47.946;10.394;2023-07-16T05:11:42;1.85;;;1.13;;
18013;SDS011;9132;47.946;10.394;2023-07-16T05:14:08;2.67;;;1.52;;
18013;SDS011;9132;47.946;10.394;2023-07-16T05:16:35;1.33;;;1.02;;
18013;SDS011;9132;47.946;10.394;2023-07-16T05:19:01;1.63;;;1.25;;
18013;SDS011;9132;47.946;10.394;2023-07-16T05:21:27;1.30;;;1.20;;
18013;SDS011;9132;47.946;10.394;2023-07-16T05:23:54;1.33;;;1.08;;
18013;SDS011;9132;47.946;10.394;2023-07-16T05:26:20;1.60;;;1.30;;
18013;SDS011;9132;47.946;10.394;2023-07-16T05:28:48;1.40;;;1.30;;
18013;SDS011;9132;47.946;10.394;2023-07-16T05:31:14;1.45;;;1.35;;
18013;SDS011;9132;47.946;10.394;2023-07-16T05:33:40;1.50;;;1.25;;
18013;SDS011;9132;47.946;10.394;2023-07-16T05:36:07;2.83;;;1.20;;
18013;SDS011;9132;47.946;10.394;2023-07-16T05:38:33;2.20;;;1.52;;
18013;SDS011;9132;47.946;10.394;2023-07-16T05:41:00;1.63;;;1.40;;
18013;SDS011;9132;47.946;10.394;2023-07-16T05:43:27;1.48;;;1.30;;
18013;SDS011;9132;47.946;10.394;2023-07-16T05:45:55;3.30;;;1.30;;
18013;SDS011;9132;47.946;10.394;2023-07-16T05:48:21;1.77;;;1.30;;
18013;SDS011;9132;47.946;10.394;2023-07-16T05:50:48;1.30;;;1.20;;
18013;SDS011;9132;47.946;10.394;2023-07-16T05:53:14;1.70;;;1.60;;
18013;SDS011;9132;47.946;10.394;2023-07-16T05:55:40;1.50;;;1.30;;
18013;SDS011;9132;47.946;10.394;2023-07-16T05:58:07;1.63;;;1.23;;
18013;SDS011;9132;47.946;10.394;2023-07-16T06:00:33;1.73;;;1.63;;
18013;SDS011;9132;47.946;10.394;2023-07-16T06:03:02;1.73;;;1.42;;
18013;SDS011;9132;47.946;10.394;2023-07-16T06:05:28;1.40;;;1.30;;
18013;SDS011;9132;47.946;10.394;2023-07-16T06:07:57;1.83;;;1.50;;
18013;SDS011;9132;47.946;10.394;2023-07-16T06:10:23;1.55;;;1.45;;
18013;SDS011;9132;47.946;10.394;2023-07-16T06:12:50;1.83;;;1.63;;
18013;SDS011;9132;47.946;10.394;2023-07-16T06:15:16;3.67;;;1.48;;
18013;SDS011;9132;47.946;10.394;2023-07-16T06:17:42;1.58;;;1.40;;
18013;SDS011;9132;47.946;10.394;2023-07-16T06:20:10;3.03;;;1.73;;
18013;SDS011;9132;47.946;10.394;2023-07-16T06:22:37;2.33;;;1.60;;
18013;SDS011;9132;47.946;10.394;2023-07-16T06:25:03;2.85;;;1.55;;
18013;SDS011;9132;47.946;10.394;2023-07-16T06:27:30;1.33;;;1.23;;
18013;SDS011;9132;47.946;10.394;2023-07-16T06:29:57;1.98;;;1.42;;
18013;SDS011;9132;47.946;10.394;2023-07-16T06:32:23;1.85;;;1.73;;
18013;SDS011;9132;47.946;10.394;2023-07-16T06:34:49;2.03;;;1.52;;
18013;SDS011;9132;47.946;10.394;2023-07-16T06:37:17;1.77;;;1.42;;
18013;SDS011;9132;47.946;10.394;2023-07-16T06:39:43;1.52;;;1.42;;
18013;SDS011;9132;47.946;10.394;2023-07-16T06:42:10;1.85;;;1.52;;
18013;SDS011;9132;47.946;10.394;2023-07-16T06:44:36;1.90;;;1.58;;
18013;SDS011;9132;47.946;10.394;2023-07-16T06:47:03;1.67;;;1.58;;
18013;SDS011;9132;47.946;10.394;2023-07-16T06:49:29;1.58;;;1.48;;
18013;SDS011;9132;47.946;10.394;2023-07-16T06:51:56;2.25;;;2.10;;
18013;SDS011;9132;47.946;10.394;2023-07-16T06:54:24;1.50;;;1.40;;
18013;SDS011;9132;47.946;10.394;2023-07-16T06:56:50;2.33;;;1.75;;
18013;SDS011;9132;47.946;10.394;2023-07-16T06:59:16;1.98;;;1.77;;
18013;SDS011;9132;47.946;10.394;2023-07-16T07:01:43;1.92;;;1.40;;
18013;SDS011;9132;47.946;10.394;2023-07-16T07:04:09;3.22;;;1.42;;
18013;SDS011;9132;47.946;10.394;2023-07-16T07:06:35;1.50;;;1.40;;
18013;SDS011;9132;47.946;10.394;2023-07-16T07:09:02;1.90;;;1.70;;
18013;SDS011;9132;47.946;10.394;2023-07-16T07:11:30;1.88;;;1.55;;
18013;SDS011;9132;47.946;10.394;2023-07-16T07:13:57;1.73;;;1.63;;
18013;SDS011;9132;47.946;10.394;2023-07-16T07:16:23;2.35;;;1.50;;
18013;SDS011;9132;47.946;10.394;2023-07-16T07:18:50;1.40;;;1.30;;
18013;SDS011;9132;47.946;10.394;2023-07-16T07:21:16;1.58;;;1.48;;
18013;SDS011;9132;47.946;10.394;2023-07-16T07:23:42;1.40;;;1.30;;
18013;SDS011;9132;47.946;10.394;2023-07-16T07:26:09;3.40;;;1.60;;
18013;SDS011;9132;47.946;10.394;2023-07-16T07:28:36;2.10;;;1.20;;
18013;SDS011;9132;47.946;10.394;2023-07-16T07:31:03;1.73;;;1.45;;
18013;SDS011;9132;47.946;10.394;2023-07-16T07:33:29;1.83;;;1.50;;
18013;SDS011;9132;47.946;10.394;2023-07-16T07:35:57;1.55;;;1.45;;
18013;SDS011;9132;47.946;10.394;2023-07-16T07:38:23;1.40;;;1.30;;
18013;SDS011;9132;47.946;10.394;2023-07-16T07:40:50;1.48;;;1.38;;
18013;SDS011;9132;47.946;10.394;2023-07-16T07:43:16;1.42;;;1.33;;
18013;SDS011;9132;47.946;10.394;2023-07-16T07:45:44;1.80;;;1.38;;
18013;SDS011;9132;47.946;10.394;2023-07-16T07:48:10;1.67;;;1.40;;
18013;SDS011;9132;47.946;10.394;2023-07-16T07:50:37;2.08;;;1.65;;
18013;SDS011;9132;47.946;10.394;2023-07-16T07:53:04;1.95;;;1.70;;
18013;SDS011;9132;47.946;10.394;2023-07-16T07:55:31;1.30;;;1.20;;
18013;SDS011;9132;47.946;10.394;2023-07-16T07:57:57;1.35;;;1.23;;
18013;SDS011;9132;47.946;10.394;2023-07-16T08:00:23;1.70;;;1.33;;
18013;SDS011;9132;47.946;10.394;2023-07-16T08:02:51;3.00;;;1.50;;
18013;SDS011;9132;47.946;10.394;2023-07-16T08:05:18;2.15;;;1.40;;
18013;SDS011;9132;47.946;10.394;2023-07-16T08:07:45;1.67;;;1.30;;
18013;SDS011;9132;47.946;10.394;2023-07-16T08:10:11;1.48;;;1.30;;
18013;SDS011;9132;47.946;10.394;2023-07-16T08:12:37;2.15;;;1.38;;
18013;SDS011;9132;47.946;10.394;2023-07-16T08:15:04;1.40;;;1.30;;
18013;SDS011;9132;47.946;10.394;2023-07-16T08:17:32;1.60;;;1.33;;
18013;SDS011;9132;47.946;10.394;2023-07-16T08:20:00;1.58;;;1.48;;
18013;SDS011;9132;47.946;10.394;2023-07-16T08:22:26;1.55;;;1.25;;
18013;SDS011;9132;47.946;10.394;2023-07-16T08:24:53;2.72;;;1.60;;
18013;SDS011;9132;47.946;10.394;2023-07-16T08:27:19;1.63;;;1.48;;
18013;SDS011;9132;47.946;10.394;2023-07-16T08:29:45;1.42;;;1.33;;
18013;SDS011;9132;47.946;10.394;2023-07-16T08:32:12;1.33;;;1.20;;
18013;SDS011;9132;47.946;10.394;2023-07-16T08:34:38;1.90;;;1.70;;
18013;SDS011;9132;47.946;10.394;2023-07-16T08:37:06;1.35;;;1.27;;
18013;SDS011;9132;47.946;10.394;2023-07-16T08:39:33;2.47;;;1.50;;
18013;SDS011;9132;47.946;10.394;2023-07-16T08:41:59;1.92;;;1.55;;
18013;SDS011;9132;47.946;10.394;2023-07-16T08:44:26;1.55;;;1.45;;
18013;SDS011;9132;47.946;10.394;2023-07-16T08:46:52;1.52;;;1.27;;
18013;SDS011;9132;47.946;10.394;2023-07-16T08:49:19;2.22;;;1.80;;
18013;SDS011;9132;47.946;10.394;2023-07-16T08:51:47;1.70;;;1.60;;
18013;SDS011;9132;47.946;10.394;2023-07-16T08:54:15;1.70;;;1.60;;
18013;SDS011;9132;47.946;10.394;2023-07-16T08:56:42;1.90;;;1.60;;
18013;SDS011;9132;47.946;10.394;2023-07-16T08:59:09;1.77;;;1.65;;
18013;SDS011;9132;47.946;10.394;2023-07-16T09:01:36;2.70;;;1.50;;
18013;SDS011;9132;47.946;10.394;2023-07-16T09:04:02;1.58;;;1.30;;
18013;SDS011;9132;47.946;10.394;2023-07-16T09:06:29;1.60;;;1.38;;
18013;SDS011;9132;47.946;10.394;2023-07-16T09:08:55;1.40;;;1.30;;
18013;SDS011;9132;47.946;10.394;2023-07-16T09:11:23;2.40;;;1.38;;
18013;SDS011;9132;47.946;10.394;2023-07-16T09:13:49;3.55;;;1.30;;
18013;SDS011;9132;47.946;10.394;2023-07-16T09:16:17;1.35;;;1.25;;
18013;SDS011;9132;47.946;10.394;2023-07-16T09:18:44;2.25;;;1.63;;
18013;SDS011;9132;47.946;10.394;2023-07-16T09:21:10;1.52;;;1.40;;
18013;SDS011;9132;47.946;10.394;2023-07-16T09:23:36;1.70;;;1.60;;
18013;SDS011;9132;47.946;10.394;2023-07-16T09:26:03;1.40;;;1.30;;
18013;SDS011;9132;47.946;10.394;2023-07-16T09:28:31;1.50;;;1.40;;
18013;SDS011;9132;47.946;10.394;2023-07-16T09:31:02;2.10;;;1.70;;
18013;SDS011;9132;47.946;10.394;2023-07-16T09:33:31;1.67;;;1.45;;
18013;SDS011;9132;47.946;10.394;2023-07-16T09:35:57;2.00;;;1.55;;
18013;SDS011;9132;47.946;10.394;2023-07-16T09:38:23;1.63;;;1.50;;
18013;SDS011;9132;47.946;10.394;2023-07-16T09:40:51;3.00;;;2.03;;
18013;SDS011;9132;47.946;10.394;2023-07-16T09:43:17;1.48;;;1.38;;
18013;SDS011;9132;47.946;10.394;2023-07-16T09:45:45;1.52;;;1.42;;
18013;SDS011;9132;47.946;10.394;2023-07-16T09:48:12;2.00;;;1.40;;
18013;SDS011;9132;47.946;10.394;2023-07-16T09:50:39;2.30;;;1.52;;
18013;SDS011;9132;47.946;10.394;2023-07-16T09:53:09;2.55;;;1.40;;
18013;SDS011;9132;47.946;10.394;2023-07-16T09:55:35;1.42;;;1.33;;
18013;SDS011;9132;47.946;10.394;2023-07-16T09:58:03;2.95;;;1.63;;
18013;SDS011;9132;47.946;10.394;2023-07-16T10:00:32;3.65;;;1.65;;
18013;SDS011;9132;47.946;10.394;2023-07-16T10:03:01;1.65;;;1.55;;
18013;SDS011;9132;47.946;10.394;2023-07-16T10:05:27;1.50;;;1.40;;
18013;SDS011;9132;47.946;10.394;2023-07-16T10:07:54;1.60;;;1.40;;
18013;SDS011;9132;47.946;10.394;2023-07-16T10:10:25;2.05;;;1.48;;
18013;SDS011;9132;47.946;10.394;2023-07-16T10:12:56;2.40;;;1.65;;
18013;SDS011;9132;47.946;10.394;2023-07-16T10:15:26;1.45;;;1.35;;
18013;SDS011;9132;47.946;10.394;2023-07-16T10:17:53;1.70;;;1.60;;
18013;SDS011;9132;47.946;10.394;2023-07-16T10:20:29;2.00;;;1.40;;
18013;SDS011;9132;47.946;10.394;2023-07-16T10:22:56;1.83;;;1.58;;
18013;SDS011;9132;47.946;10.394;2023-07-16T10:25:23;1.20;;;1.10;;
18013;SDS011;9132;47.946;10.394;2023-07-16T10:27:49;1.75;;;1.42;;
18013;SDS011;9132;47.946;10.394;2023-07-16T10:30:16;2.25;;;1.55;;
18013;SDS011;9132;47.946;10.394;2023-07-16T10:32:43;1.60;;;1.50;;
18013;SDS011;9132;47.946;10.394;2023-07-16T10:35:09;2.95;;;1.40;;
18013;SDS011;9132;47.946;10.394;2023-07-16T10:37:38;1.65;;;1.55;;
18013;SDS011;9132;47.946;10.394;2023-07-16T10:40:04;2.70;;;1.70;;
18013;SDS011;9132;47.946;10.394;2023-07-16T10:42:31;1.60;;;1.50;;
18013;SDS011;9132;47.946;10.394;2023-07-16T10:44:58;1.90;;;1.70;;
18013;SDS011;9132;47.946;10.394;2023-07-16T10:47:31;2.20;;;1.42;;
18013;SDS011;9132;47.946;10.394;2023-07-16T10:49:58;2.17;;;1.52;;
18013;SDS011;9132;47.946;10.394;2023-07-16T10:52:25;3.00;;;1.40;;
18013;SDS011;9132;47.946;10.394;2023-07-16T10:54:53;1.75;;;1.65;;
18013;SDS011;9132;47.946;10.394;2023-07-16T10:57:20;2.35;;;1.52;;
18013;SDS011;9132;47.946;10.394;2023-07-16T10:59:48;2.55;;;1.60;;
18013;SDS011;9132;47.946;10.394;2023-07-16T11:02:15;1.40;;;1.30;;
18013;SDS011;9132;47.946;10.394;2023-07-16T11:04:41;2.88;;;1.63;;
18013;SDS011;9132;47.946;10.394;2023-07-16T11:07:08;1.65;;;1.40;;
18013;SDS011;9132;47.946;10.394;2023-07-16T11:09:40;1.33;;;1.23;;
18013;SDS011;9132;47.946;10.394;2023-07-16T11:12:09;1.60;;;1.50;;
18013;SDS011;9132;47.946;10.394;2023-07-16T11:14:36;2.42;;;1.58;;
18013;SDS011;9132;47.946;10.394;2023-07-16T11:17:06;2.45;;;1.42;;
18013;SDS011;9132;47.946;10.394;2023-07-16T11:19:33;1.98;;;1.40;;
18013;SDS011;9132;47.946;10.394;2023-07-16T11:22:00;3.03;;;2.17;;
18013;SDS011;9132;47.946;10.394;2023-07-16T11:24:26;1.60;;;1.50;;
18013;SDS011;9132;47.946;10.394;2023-07-16T11:26:53;1.60;;;1.50;;
18013;SDS011;9132;47.946;10.394;2023-07-16T11:29:21;1.50;;;1.40;;
18013;SDS011;9132;47.946;10.394;2023-07-16T11:31:48;1.60;;;1.50;;
18013;SDS011;9132;47.946;10.394;2023-07-16T11:34:14;1.63;;;1.52;;
18013;SDS011;9132;47.946;10.394;2023-07-16T11:36:42;1.75;;;1.50;;
18013;SDS011;9132;47.946;10.394;2023-07-16T11:39:10;1.52;;;1.42;;
18013;SDS011;9132;47.946;10.394;2023-07-16T11:41:36;1.50;;;1.40;;
18013;SDS011;9132;47.946;10.394;2023-07-16T11:44:03;1.50;;;1.40;;
18013;SDS011;9132;47.946;10.394;2023-07-16T11:46:34;1.50;;;1.40;;
18013;SDS011;9132;47.946;10.394;2023-07-16T11:49:00;2.13;;;1.33;;
18013;SDS011;9132;47.946;10.394;2023-07-16T11:51:27;1.75;;;1.23;;
18013;SDS011;9132;47.946;10.394;2023-07-16T11:53:55;1.30;;;1.20;;
18013;SDS011;9132;47.946;10.394;2023-07-16T11:56:21;2.10;;;1.50;;
18013;SDS011;9132;47.946;10.394;2023-07-16T11:58:48;1.65;;;1.55;;
18013;SDS011;9132;47.946;10.394;2023-07-16T12:01:15;1.15;;;1.05;;
18013;SDS011;9132;47.946;10.394;2023-07-16T12:03:43;1.67;;;1.58;;
18013;SDS011;9132;47.946;10.394;2023-07-16T12:06:09;1.95;;;1.67;;
18013;SDS011;9132;47.946;10.394;2023-07-16T12:08:35;1.75;;;1.55;;
18013;SDS011;9132;47.946;10.394;2023-07-16T12:11:02;1.60;;;1.33;;
18013;SDS011;9132;47.946;10.394;2023-07-16T12:13:28;2.00;;;1.85;;
18013;SDS011;9132;47.946;10.394;2023-07-16T12:15:55;2.60;;;1.52;;
18013;SDS011;9132;47.946;10.394;2023-07-16T12:18:21;1.52;;;1.42;;
18013;SDS011;9132;47.946;10.394;2023-07-16T12:20:49;3.42;;;1.50;;
18013;SDS011;9132;47.946;10.394;2023-07-16T12:23:15;1.63;;;1.42;;
18013;SDS011;9132;47.946;10.394;2023-07-16T12:25:42;3.05;;;1.70;;
18013;SDS011;9132;47.946;10.394;2023-07-16T12:28:09;1.40;;;1.20;;
18013;SDS011;9132;47.946;10.394;2023-07-16T12:30:37;2.38;;;1.20;;
18013;SDS011;9132;47.946;10.394;2023-07-16T12:33:03;1.80;;;1.30;;
18013;SDS011;9132;47.946;10.394;2023-07-16T12:35:29;2.30;;;1.45;;
18013;SDS011;9132;47.946;10.394;2023-07-16T12:37:57;2.53;;;1.50;;
18013;SDS011;9132;47.946;10.394;2023-07-16T12:40:24;1.85;;;1.40;;
18013;SDS011;9132;47.946;10.394;2023-07-16T12:42:50;3.47;;;1.77;;
18013;SDS011;9132;47.946;10.394;2023-07-16T12:45:16;1.88;;;1.77;;
18013;SDS011;9132;47.946;10.394;2023-07-16T12:47:43;3.20;;;2.53;;
18013;SDS011;9132;47.946;10.394;2023-07-16T12:50:09;2.17;;;1.85;;
18013;SDS011;9132;47.946;10.394;2023-07-16T12:52:36;1.50;;;1.40;;
18013;SDS011;9132;47.946;10.394;2023-07-16T12:55:04;1.60;;;1.50;;
18013;SDS011;9132;47.946;10.394;2023-07-16T12:57:30;2.38;;;1.60;;
18013;SDS011;9132;47.946;10.394;2023-07-16T12:59:57;2.45;;;1.50;;
18013;SDS011;9132;47.946;10.394;2023-07-16T13:02:23;1.52;;;1.38;;
18013;SDS011;9132;47.946;10.394;2023-07-16T13:04:50;2.22;;;2.03;;
18013;SDS011;9132;47.946;10.394;2023-07-16T13:07:16;1.73;;;1.63;;
18013;SDS011;9132;47.946;10.394;2023-07-16T13:09:42;1.70;;;1.60;;
18013;SDS011;9132;47.946;10.394;2023-07-16T13:12:10;2.05;;;1.50;;
18013;SDS011;9132;47.946;10.394;2023-07-16T13:14:36;1.60;;;1.50;;
18013;SDS011;9132;47.946;10.394;2023-07-16T13:17:03;2.92;;;1.63;;
18013;SDS011;9132;47.946;10.394;2023-07-16T13:19:30;1.85;;;1.52;;
18013;SDS011;9132;47.946;10.394;2023-07-16T13:21:56;1.65;;;1.50;;
18013;SDS011;9132;47.946;10.394;2023-07-16T13:24:23;1.45;;;1.30;;
18013;SDS011;9132;47.946;10.394;2023-07-16T13:26:50;1.63;;;1.52;;
18013;SDS011;9132;47.946;10.394;2023-07-16T13:29:18;2.35;;;1.45;;
18013;SDS011;9132;47.946;10.394;2023-07-16T13:31:44;2.42;;;1.67;;
18013;SDS011;9132;47.946;10.394;2023-07-16T13:34:11;1.67;;;1.58;;
18013;SDS011;9132;47.946;10.394;2023-07-16T13:36:37;1.73;;;1.63;;
18013;SDS011;9132;47.946;10.394;2023-07-16T13:39:04;3.03;;;1.70;;
18013;SDS011;9132;47.946;10.394;2023-07-16T13:41:31;1.70;;;1.52;;
18013;SDS011;9132;47.946;10.394;2023-07-16T13:43:58;2.38;;;1.80;;
18013;SDS011;9132;47.946;10.394;2023-07-16T13:46:26;2.38;;;1.70;;
18013;SDS011;9132;47.946;10.394;2023-07-16T13:48:52;2.58;;;1.60;;
18013;SDS011;9132;47.946;10.394;2023-07-16T13:51:18;2.22;;;1.98;;
18013;SDS011;9132;47.946;10.394;2023-07-16T13:53:45;1.85;;;1.73;;
18013;SDS011;9132;47.946;10.394;2023-07-16T13:56:11;2.47;;;1.60;;
18013;SDS011;9132;47.946;10.394;2023-07-16T13:58:37;2.47;;;1.77;;
18013;SDS011;9132;47.946;10.394;2023-07-16T14:01:04;1.55;;;1.45;;
18013;SDS011;9132;47.946;10.394;2023-07-16T14:03:32;2.95;;;1.48;;
18013;SDS011;9132;47.946;10.394;2023-07-16T14:05:58;1.80;;;1.60;;
18013;SDS011;9132;47.946;10.394;2023-07-16T14:08:24;2.15;;;1.67;;
18013;SDS011;9132;47.946;10.394;2023-07-16T14:10:53;1.75;;;1.60;;
18013;SDS011;9132;47.946;10.394;2023-07-16T14:13:19;2.10;;;1.80;;
18013;SDS011;9132;47.946;10.394;2023-07-16T14:15:46;3.08;;;1.80;;
18013;SDS011;9132;47.946;10.394;2023-07-16T14:18:12;1.92;;;1.73;;
18013;SDS011;9132;47.946;10.394;2023-07-16T14:20:40;1.65;;;1.50;;
18013;SDS011;9132;47.946;10.394;2023-07-16T14:23:06;1.85;;;1.75;;
18013;SDS011;9132;47.946;10.394;2023-07-16T14:25:32;2.42;;;1.88;;
18013;SDS011;9132;47.946;10.394;2023-07-16T14:27:59;1.83;;;1.70;;
18013;SDS011;9132;47.946;10.394;2023-07-16T14:30:25;2.70;;;1.70;;
18013;SDS011;9132;47.946;10.394;2023-07-16T14:32:52;2.67;;;1.60;;
18013;SDS011;9132;47.946;10.394;2023-07-16T14:35:18;2.08;;;1.70;;
18013;SDS011;9132;47.946;10.394;2023-07-16T14:37:46;2.20;;;1.90;;
18013;SDS011;9132;47.946;10.394;2023-07-16T14:40:12;2.47;;;1.50;;
18013;SDS011;9132;47.946;10.394;2023-07-16T14:42:38;4.72;;;1.75;;
18013;SDS011;9132;47.946;10.394;2023-07-16T14:45:06;2.90;;;1.60;;